createdAt,value
2023-04-07T00:00:12.686Z,101679.13
2023-04-07T00:02:42.420Z,101676.47
2023-04-07T00:05:13.610Z,101685.88
2023-04-07T00:07:48.924Z,101688.66
2023-04-07T00:10:23.551Z,101685.88
2023-04-07T00:12:51.548Z,101692.03
2023-04-07T00:15:19.585Z,101689.63
2023-04-07T00:17:47.585Z,101687.47
2023-04-07T00:20:17.115Z,101683.88
2023-04-07T00:22:45.128Z,101691.94
2023-04-07T00:25:13.066Z,101688.34
2023-04-07T00:27:41.010Z,101678.34
2023-04-07T00:30:09.870Z,101683.25
2023-04-07T00:32:37.803Z,101681.56
2023-04-07T00:35:06.217Z,101687.91
2023-04-07T00:37:35.575Z,101683.22
2023-04-07T00:40:04.152Z,101683.44
2023-04-07T00:42:32.055Z,101675.34
2023-04-07T00:44:59.968Z,101686.38
2023-04-07T00:47:27.906Z,101688.13
2023-04-07T00:49:56.120Z,101688.09
2023-04-07T00:52:28.844Z,101681.66
2023-04-07T00:54:58.212Z,101690.19
2023-04-07T00:57:26.096Z,101687.59
2023-04-07T00:59:54.371Z,101686.75
2023-04-07T01:02:27.404Z,101681.34
2023-04-07T01:04:58.288Z,101681.94
2023-04-07T01:07:30.284Z,101688.88
2023-04-07T01:10:06.134Z,101677.84
2023-04-07T01:12:39.598Z,101681.75
2023-04-07T01:15:11.832Z,101678.97
2023-04-07T01:17:44.046Z,101680.84
2023-04-07T01:20:15.422Z,101684.50
2023-04-07T01:22:45.005Z,101683.28
2023-04-07T01:25:40.022Z,101687.16
2023-04-07T01:28:32.836Z,101681.09
2023-04-07T01:31:02.847Z,101679.41
2023-04-07T01:33:33.268Z,101680.22
2023-04-07T01:36:02.388Z,101684.09
2023-04-07T01:38:31.070Z,101689.63
2023-04-07T01:41:00.014Z,101676.44
2023-04-07T01:43:28.819Z,101681.84
2023-04-07T01:45:57.623Z,101675.66
2023-04-07T01:48:27.289Z,101684.75
2023-04-07T01:50:56.336Z,101686.00
2023-04-07T01:53:24.774Z,101685.13
2023-04-07T01:55:53.699Z,101683.56
2023-04-07T01:58:21.613Z,101689.41
2023-04-07T02:00:50.821Z,101690.38
2023-04-07T02:03:22.358Z,101693.22
2023-04-07T02:05:55.307Z,101693.91
2023-04-07T02:08:25.195Z,101695.53
2023-04-07T02:10:54.118Z,101690.47
2023-04-07T02:13:22.204Z,101694.00
2023-04-07T02:15:51.535Z,101692.59
2023-04-07T02:18:21.595Z,101695.13
2023-04-07T02:20:51.442Z,101696.88
2023-04-07T02:23:19.424Z,101687.59
2023-04-07T02:25:47.344Z,101704.31
2023-04-07T02:28:15.570Z,101692.69
2023-04-07T02:30:43.483Z,101700.97
2023-04-07T02:33:11.352Z,101698.47
2023-04-07T02:35:39.280Z,101700.94
2023-04-07T02:38:08.544Z,101707.53
2023-04-07T02:40:36.682Z,101708.31
2023-04-07T02:43:05.305Z,101693.91
2023-04-07T02:45:33.401Z,101698.84
2023-04-07T02:48:01.467Z,101699.75
2023-04-07T02:50:29.372Z,101701.88
2023-04-07T02:52:57.323Z,101719.53
2023-04-07T02:55:26.621Z,101704.94
2023-04-07T02:57:54.518Z,101713.69
2023-04-07T03:00:22.466Z,101722.66
2023-04-07T03:02:50.485Z,101708.38
2023-04-07T03:05:18.513Z,101719.75
2023-04-07T03:07:46.523Z,101719.00
2023-04-07T03:10:14.433Z,101719.16
2023-04-07T03:12:44.368Z,101716.63
2023-04-07T03:15:12.596Z,101713.59
2023-04-07T03:17:40.552Z,101719.09
2023-04-07T03:20:09.649Z,101718.75
2023-04-07T03:22:37.555Z,101722.00
2023-04-07T03:25:06.184Z,101720.94
2023-04-07T03:27:34.083Z,101726.09
2023-04-07T03:30:03.538Z,101715.91
2023-04-07T03:32:31.532Z,101728.91
2023-04-07T03:34:59.427Z,101726.53
2023-04-07T03:37:27.439Z,101717.88
2023-04-07T03:39:55.360Z,101716.09
2023-04-07T03:42:23.304Z,101715.25
2023-04-07T03:44:51.350Z,101725.81
2023-04-07T03:47:20.710Z,101723.97
2023-04-07T03:49:48.586Z,101722.28
2023-04-07T03:52:16.839Z,101733.97
2023-04-07T03:54:44.773Z,101736.84
2023-04-07T03:57:12.671Z,101729.59
2023-04-07T03:59:40.731Z,101733.72
2023-04-07T04:02:08.964Z,101735.50
2023-04-07T04:04:38.487Z,101741.44
2023-04-07T04:07:06.456Z,101744.88
2023-04-07T04:09:34.328Z,101737.81
2023-04-07T04:12:02.501Z,101750.56
2023-04-07T04:14:30.430Z,101740.50
2023-04-07T04:16:58.336Z,101749.91
2023-04-07T04:19:26.328Z,101751.41
2023-04-07T04:21:55.587Z,101752.53
2023-04-07T04:24:23.487Z,101758.91
2023-04-07T04:26:51.708Z,101759.25
2023-04-07T04:29:19.611Z,101759.00
2023-04-07T04:31:47.531Z,101759.19
2023-04-07T04:34:15.640Z,101767.66
2023-04-07T04:36:43.561Z,101764.59
2023-04-07T04:39:12.870Z,101764.22
2023-04-07T04:41:40.791Z,101770.03
2023-04-07T04:44:08.842Z,101775.94
2023-04-07T04:46:36.997Z,101774.75
2023-04-07T04:49:04.971Z,101781.53
2023-04-07T04:51:32.852Z,101780.72
2023-04-07T04:54:00.740Z,101774.19
2023-04-07T04:56:30.052Z,101785.38
2023-04-07T04:58:57.927Z,101783.63
2023-04-07T05:01:25.839Z,101792.63
2023-04-07T05:03:54.265Z,101782.69
2023-04-07T05:06:22.648Z,101788.50
2023-04-07T05:08:50.547Z,101799.69
2023-04-07T05:11:18.512Z,101791.09
2023-04-07T05:13:47.804Z,101798.84
2023-04-07T05:16:15.770Z,101811.78
2023-04-07T05:18:43.767Z,101811.25
2023-04-07T05:21:11.644Z,101806.78
2023-04-07T05:23:39.513Z,101810.56
2023-04-07T05:26:07.435Z,101811.94
2023-04-07T05:28:35.378Z,101806.06
2023-04-07T05:31:07.032Z,101819.47
2023-04-07T05:33:35.573Z,101821.31
2023-04-07T05:36:03.585Z,101821.81
2023-04-07T05:38:31.518Z,101823.19
2023-04-07T05:40:59.380Z,101828.34
2023-04-07T05:43:27.259Z,101823.66
2023-04-07T05:45:55.253Z,101831.22
2023-04-07T05:48:24.512Z,101834.63
2023-04-07T05:50:52.412Z,101838.03
2023-04-07T05:53:20.326Z,101834.75
2023-04-07T05:55:48.202Z,101833.53
2023-04-07T05:58:16.616Z,101842.28
2023-04-07T06:00:44.585Z,101851.03
2023-04-07T06:03:12.645Z,101852.38
2023-04-07T06:05:43.731Z,101857.06
2023-04-07T06:08:11.856Z,101856.84
2023-04-07T06:10:41.284Z,101853.38
2023-04-07T06:13:09.351Z,101863.31
2023-04-07T06:15:37.298Z,101855.53
2023-04-07T06:18:05.349Z,101869.31
2023-04-07T06:20:33.295Z,101868.19
2023-04-07T06:23:02.576Z,101878.13
2023-04-07T06:25:30.546Z,101878.47
2023-04-07T06:27:58.461Z,101880.81
2023-04-07T06:30:26.417Z,101877.97
2023-04-07T06:32:55.006Z,101877.22
2023-04-07T06:35:23.000Z,101882.88
2023-04-07T06:37:50.936Z,101880.53
2023-04-07T06:40:20.386Z,101881.13
2023-04-07T06:42:48.270Z,101878.94
2023-04-07T06:45:16.262Z,101885.81
2023-04-07T06:47:44.213Z,101889.84
2023-04-07T06:50:12.512Z,101891.66
2023-04-07T06:52:40.656Z,101882.19
2023-04-07T06:55:09.775Z,101884.88
2023-04-07T06:57:39.062Z,101885.94
2023-04-07T07:00:09.097Z,101890.81
2023-04-07T07:02:37.311Z,101894.66
2023-04-07T07:05:05.936Z,101898.63
2023-04-07T07:07:33.863Z,101904.06
2023-04-07T07:10:01.890Z,101896.47
2023-04-07T07:12:29.796Z,101894.94
2023-04-07T07:14:59.058Z,101903.22
2023-04-07T07:17:27.057Z,101902.31
2023-04-07T07:19:54.997Z,101902.81
2023-04-07T07:22:23.066Z,101907.16
2023-04-07T07:24:51.171Z,101913.88
2023-04-07T07:27:19.110Z,101911.16
2023-04-07T07:29:47.025Z,101918.66
2023-04-07T07:32:16.339Z,101918.53
2023-04-07T07:34:44.252Z,101915.59
2023-04-07T07:37:12.509Z,101923.16
2023-04-07T07:39:40.442Z,101925.13
2023-04-07T07:42:08.331Z,101929.66
2023-04-07T07:44:36.207Z,101924.81
2023-04-07T07:47:04.106Z,101927.56
2023-04-07T07:49:33.351Z,101938.53
2023-04-07T07:52:01.374Z,101946.28
2023-04-07T07:54:29.307Z,101945.66
2023-04-07T07:56:57.446Z,101943.41
2023-04-07T07:59:25.400Z,101941.13
2023-04-07T08:01:53.394Z,101951.47
2023-04-07T08:04:23.402Z,101951.72
2023-04-07T08:06:53.343Z,101957.38
2023-04-07T08:09:21.443Z,101952.03
2023-04-07T08:11:49.531Z,101955.69
2023-04-07T08:14:17.550Z,101967.91
2023-04-07T08:16:46.447Z,101965.75
2023-04-07T08:19:15.012Z,101952.16
2023-04-07T08:21:42.989Z,101968.00
2023-04-07T08:24:12.551Z,101967.84
2023-04-07T08:26:40.622Z,101962.91
2023-04-07T08:29:08.731Z,101959.06
2023-04-07T08:31:36.664Z,101962.97
2023-04-07T08:34:04.678Z,101967.88
2023-04-07T08:36:32.782Z,101964.50
2023-04-07T08:39:02.276Z,101956.16
2023-04-07T08:41:35.220Z,101962.63
2023-04-07T08:44:03.553Z,101954.91
2023-04-07T08:46:31.846Z,101965.63
2023-04-07T08:49:00.432Z,101959.22
2023-04-07T08:51:29.820Z,101957.25
2023-04-07T08:54:02.778Z,101959.81
2023-04-07T08:56:33.618Z,101970.09
2023-04-07T08:59:02.563Z,101967.13
2023-04-07T09:01:30.941Z,101963.03
2023-04-07T09:03:59.816Z,101970.97
2023-04-07T09:06:28.244Z,101970.69
2023-04-07T09:08:56.187Z,101959.94
2023-04-07T09:11:24.755Z,101961.66
2023-04-07T09:13:54.128Z,101956.06
2023-04-07T09:16:22.176Z,101964.66
2023-04-07T09:18:50.176Z,101965.69
2023-04-07T09:21:18.106Z,101970.16
2023-04-07T09:23:48.303Z,101970.13
2023-04-07T09:26:24.520Z,101975.94
2023-04-07T09:28:55.762Z,101963.81
2023-04-07T09:31:26.326Z,101970.47
2023-04-07T09:33:55.557Z,101961.84
2023-04-07T09:36:27.162Z,101965.97
2023-04-07T09:38:55.088Z,101962.59
2023-04-07T09:41:23.081Z,101962.69
2023-04-07T09:43:59.443Z,101962.31
2023-04-07T09:46:28.126Z,101966.59
2023-04-07T09:49:05.132Z,101961.38
2023-04-07T09:51:34.380Z,101961.75
2023-04-07T09:54:02.476Z,101958.38
2023-04-07T09:56:30.523Z,101957.59
2023-04-07T09:59:00.135Z,101957.19
2023-04-07T10:01:28.290Z,101964.91
2023-04-07T10:03:56.498Z,101960.31
2023-04-07T10:06:25.575Z,101953.31
2023-04-07T10:08:53.565Z,101964.78
2023-04-07T10:11:21.491Z,101959.88
2023-04-07T10:13:49.930Z,101959.19
2023-04-07T10:16:19.768Z,101958.72
2023-04-07T10:18:47.944Z,101954.03
2023-04-07T10:21:18.270Z,101961.56
2023-04-07T10:23:52.328Z,101964.75
2023-04-07T10:26:24.543Z,101964.63
2023-04-07T10:28:55.229Z,101959.78
2023-04-07T10:31:45.971Z,101959.78
2023-04-07T10:34:30.016Z,101959.91
2023-04-07T10:37:19.208Z,101956.97
2023-04-07T10:39:57.325Z,101972.25
2023-04-07T10:42:47.792Z,101972.16
2023-04-07T10:45:15.832Z,101975.03
2023-04-07T10:48:16.062Z,101978.34
2023-04-07T10:50:46.062Z,101975.31
2023-04-07T10:53:15.114Z,101972.84
2023-04-07T10:55:43.839Z,101972.38
2023-04-07T10:58:22.624Z,101972.88
2023-04-07T11:01:19.886Z,101967.75
2023-04-07T11:03:57.795Z,101969.59
2023-04-07T11:06:27.746Z,101971.94
2023-04-07T11:08:55.785Z,101961.88
2023-04-07T11:11:40.782Z,101973.00
2023-04-07T11:17:22.022Z,101971.53
2023-04-07T11:20:13.067Z,101977.78
2023-04-07T11:22:42.452Z,101982.75
2023-04-07T11:25:23.207Z,101966.78
2023-04-07T11:27:51.644Z,101983.28
2023-04-07T11:30:19.631Z,101982.75
2023-04-07T11:32:51.455Z,101981.78
2023-04-07T11:35:19.420Z,101984.22
2023-04-07T11:37:48.772Z,101982.03
2023-04-07T11:40:33.541Z,101975.38
2023-04-07T11:43:02.142Z,101971.16
2023-04-07T11:45:30.215Z,101973.34
2023-04-07T11:47:58.204Z,101971.78
2023-04-07T11:50:42.799Z,101980.13
2023-04-07T11:53:12.462Z,101977.00
2023-04-07T11:55:40.472Z,101983.63
2023-04-07T11:58:10.213Z,101973.47
2023-04-07T12:00:38.735Z,101979.66
2023-04-07T12:03:14.759Z,101980.44
2023-04-07T12:05:46.689Z,101977.88
2023-04-07T12:08:16.753Z,101980.84
2023-04-07T12:10:44.660Z,101986.22
2023-04-07T12:13:15.207Z,101990.38
2023-04-07T12:15:43.832Z,101980.69
2023-04-07T12:18:17.625Z,101987.00
2023-04-07T12:21:30.421Z,101987.41
2023-04-07T12:24:02.380Z,101981.16
2023-04-07T12:26:43.390Z,101980.38
2023-04-07T12:29:11.705Z,101973.84
2023-04-07T12:31:39.696Z,101978.50
2023-04-07T12:34:07.625Z,101978.38
2023-04-07T12:36:35.543Z,101970.19
2023-04-07T12:39:05.274Z,101989.19
2023-04-07T12:41:33.808Z,101983.47
2023-04-07T12:44:01.785Z,101983.22
2023-04-07T12:46:29.797Z,101979.09
2023-04-07T12:48:57.784Z,101978.88
2023-04-07T12:51:26.185Z,101983.66
2023-04-07T12:53:54.767Z,101975.00
2023-04-07T12:56:24.240Z,101979.75
2023-04-07T12:58:52.147Z,101989.53
2023-04-07T13:01:20.452Z,101981.53
2023-04-07T13:03:48.640Z,101985.94
2023-04-07T13:06:17.541Z,101977.00
2023-04-07T13:08:45.433Z,101985.38
2023-04-07T13:11:13.370Z,101979.41
2023-04-07T13:13:42.665Z,101979.75
2023-04-07T13:16:10.921Z,101991.88
2023-04-07T13:18:38.808Z,101979.16
2023-04-07T13:21:38.269Z,101973.16
2023-04-07T13:23:55.291Z,101980.00
2023-04-07T13:26:23.482Z,101977.41
2023-04-07T13:28:53.081Z,101970.81
2023-04-07T13:31:22.112Z,101975.19
2023-04-07T13:33:50.378Z,101976.66
2023-04-07T13:36:20.027Z,101973.31
2023-04-07T13:38:49.755Z,101971.94
2023-04-07T13:41:17.641Z,101975.06
2023-04-07T13:43:45.564Z,101972.19
2023-04-07T13:46:27.757Z,101962.50
2023-04-07T13:48:56.637Z,101968.78
2023-04-07T13:51:24.599Z,101960.50
2023-04-07T13:53:52.613Z,101966.53
2023-04-07T13:56:20.513Z,101977.09
2023-04-07T13:58:48.416Z,101978.72
2023-04-07T14:01:18.828Z,101983.53
2023-04-07T14:03:48.092Z,101977.03
2023-04-07T14:06:16.379Z,101967.75
2023-04-07T14:08:44.313Z,101968.03
2023-04-07T14:11:12.253Z,101973.81
2023-04-07T14:13:40.348Z,101968.06
2023-04-07T14:16:09.393Z,101961.84
2023-04-07T14:18:38.753Z,101965.53
2023-04-07T14:21:06.904Z,101955.84
2023-04-07T14:23:37.609Z,101955.31
2023-04-07T14:26:18.836Z,101959.34
2023-04-07T14:28:47.556Z,101961.34
2023-04-07T14:31:16.855Z,101970.66
2023-04-07T14:33:46.706Z,101957.06
2023-04-07T14:36:15.906Z,101957.03
2023-04-07T14:38:44.449Z,101963.28
2023-04-07T14:41:12.611Z,101963.78
2023-04-07T14:43:41.278Z,101960.38
2023-04-07T14:46:09.301Z,101968.78
2023-04-07T14:48:37.256Z,101967.56
2023-04-07T14:51:11.991Z,101962.78
2023-04-07T14:53:40.226Z,101971.81
2023-04-07T14:56:08.575Z,101962.75
2023-04-07T14:58:38.941Z,101962.69
2023-04-07T15:01:07.347Z,101970.13
2023-04-07T15:03:36.681Z,101965.63
2023-04-07T15:06:10.064Z,101973.06
2023-04-07T15:08:38.138Z,101975.91
2023-04-07T15:11:06.751Z,101986.38
2023-04-07T15:13:34.827Z,101977.59
2023-04-07T15:16:10.410Z,101969.09
2023-04-07T15:18:40.438Z,101976.16
2023-04-07T15:21:09.978Z,101982.06
2023-04-07T15:23:38.872Z,101980.41
2023-04-07T15:26:07.350Z,101982.97
2023-04-07T15:28:35.387Z,101996.88
2023-04-07T15:31:03.399Z,101991.78
2023-04-07T15:33:31.316Z,101990.06
2023-04-07T15:36:01.284Z,101992.63
2023-04-07T15:38:30.845Z,101983.28
2023-04-07T15:40:58.753Z,101996.88
2023-04-07T15:43:26.688Z,101999.00
2023-04-07T15:45:56.702Z,101996.09
2023-04-07T15:48:24.707Z,102000.13
2023-04-07T15:50:54.330Z,102007.28
2023-04-07T15:53:22.247Z,102010.38
2023-04-07T15:55:51.571Z,102014.84
2023-04-07T15:58:19.626Z,102007.44
2023-04-07T16:00:47.562Z,102020.44
2023-04-07T16:03:15.759Z,102023.66
2023-04-07T16:05:43.940Z,102021.19
2023-04-07T16:08:13.718Z,102027.41
2023-04-07T16:10:41.932Z,102030.06
2023-04-07T16:13:11.363Z,102031.31
2023-04-07T16:15:40.861Z,102037.84
2023-04-07T16:18:12.089Z,102040.09
2023-04-07T16:20:40.474Z,102042.16
2023-04-07T16:23:08.362Z,102054.47
2023-04-07T16:25:36.416Z,102044.34
2023-04-07T16:28:04.422Z,102044.59
2023-04-07T16:30:33.991Z,102059.84
2023-04-07T16:35:31.024Z,102056.66
2023-04-07T16:38:03.754Z,102065.50
2023-04-07T16:40:32.105Z,102060.84
2023-04-07T16:42:59.995Z,102070.25
2023-04-07T16:45:27.997Z,102058.28
2023-04-07T16:47:57.325Z,102060.59
2023-04-07T16:50:25.429Z,102073.94
2023-04-07T16:52:54.879Z,102082.28
2023-04-07T16:55:23.013Z,102080.78
2023-04-07T16:57:51.094Z,102080.38
2023-04-07T17:00:20.179Z,102080.06
2023-04-07T17:02:48.225Z,102086.56
2023-04-07T17:05:18.375Z,102085.94
2023-04-07T17:07:46.330Z,102096.50
2023-04-07T17:10:14.636Z,102097.03
2023-04-07T17:12:42.598Z,102107.59
2023-04-07T17:15:11.228Z,102110.53
2023-04-07T17:17:39.451Z,102111.34
2023-04-07T17:20:08.895Z,102118.59
2023-04-07T17:22:38.154Z,102124.94
2023-04-07T17:25:06.850Z,102117.97
2023-04-07T17:27:34.915Z,102127.63
2023-04-07T17:30:03.295Z,102133.00
2023-04-07T17:32:31.584Z,102140.00
2023-04-07T17:34:59.582Z,102142.81
2023-04-07T17:37:27.516Z,102137.63
2023-04-07T17:39:56.795Z,102136.09
2023-04-07T17:42:24.771Z,102142.84
2023-04-07T17:44:54.221Z,102146.53
2023-04-07T17:47:22.130Z,102155.88
2023-04-07T17:49:50.056Z,102151.16
2023-04-07T17:52:17.992Z,102155.28
2023-04-07T17:54:46.250Z,102161.00
2023-04-07T17:57:15.897Z,102165.72
2023-04-07T17:59:43.923Z,102169.06
2023-04-07T18:02:12.069Z,102171.25
2023-04-07T18:04:40.566Z,102175.78
2023-04-07T18:07:08.607Z,102174.97
2023-04-07T18:09:36.877Z,102182.13
2023-04-07T18:12:05.045Z,102183.59
2023-04-07T18:14:34.326Z,102184.38
2023-04-07T18:17:02.252Z,102180.56
2023-04-07T18:19:31.044Z,102181.38
2023-04-07T18:22:00.060Z,102195.22
2023-04-07T18:24:28.065Z,102193.97
2023-04-07T18:26:56.776Z,102194.38
2023-04-07T18:29:24.766Z,102199.59
2023-04-07T18:31:54.089Z,102204.97
2023-04-07T18:34:21.987Z,102207.81
2023-04-07T18:36:49.965Z,102204.00
2023-04-07T18:39:17.848Z,102223.09
2023-04-07T18:41:47.413Z,102230.63
2023-04-07T18:44:15.636Z,102225.66
2023-04-07T18:46:43.679Z,102227.09
2023-04-07T18:49:13.146Z,102232.53
2023-04-07T18:51:41.798Z,102238.09
2023-04-07T18:54:09.694Z,102241.16
2023-04-07T18:56:37.679Z,102251.47
2023-04-07T18:59:07.344Z,102250.22
2023-04-07T19:01:35.662Z,102251.06
2023-04-07T19:04:03.714Z,102256.66
2023-04-07T19:06:33.156Z,102254.47
2023-04-07T19:09:01.055Z,102260.28
2023-04-07T19:11:28.959Z,102267.59
2023-04-07T19:13:57.008Z,102259.03
2023-04-07T19:16:25.544Z,102259.44
2023-04-07T19:18:53.671Z,102264.38
2023-04-07T19:21:21.675Z,102273.63
2023-04-07T19:23:51.292Z,102271.03
2023-04-07T19:26:19.427Z,102264.81
2023-04-07T19:28:48.372Z,102276.19
2023-04-07T19:31:16.498Z,102290.56
2023-04-07T19:33:44.496Z,102287.97
2023-04-07T19:36:12.439Z,102283.94
2023-04-07T19:38:40.578Z,102291.44
2023-04-07T19:41:10.044Z,102291.19
2023-04-07T19:43:37.949Z,102288.34
2023-04-07T19:46:06.433Z,102292.16
2023-04-07T19:48:34.461Z,102295.84
2023-04-07T19:51:02.396Z,102291.94
2023-04-07T19:53:30.308Z,102292.81
2023-04-07T19:55:58.252Z,102288.09
2023-04-07T19:58:27.574Z,102292.81
2023-04-07T20:00:55.488Z,102281.34
2023-04-07T20:03:24.174Z,102289.09
2023-04-07T20:05:52.938Z,102279.88
2023-04-07T20:08:20.846Z,102293.94
2023-04-07T20:10:48.856Z,102286.50
2023-04-07T20:13:16.820Z,102294.28
2023-04-07T20:15:46.831Z,102298.59
2023-04-07T20:18:16.924Z,102302.56
2023-04-07T20:20:44.857Z,102299.78
2023-04-07T20:23:12.868Z,102302.41
2023-04-07T20:25:40.788Z,102300.66
2023-04-07T20:28:08.824Z,102295.50
2023-04-07T20:30:36.760Z,102302.78
2023-04-07T20:33:06.173Z,102301.09
2023-04-07T20:35:34.202Z,102305.78
2023-04-07T20:38:02.749Z,102311.69
2023-04-07T20:40:30.727Z,102307.00
2023-04-07T20:42:58.631Z,102312.16
2023-04-07T20:45:27.648Z,102321.69
2023-04-07T20:47:56.560Z,102322.09
2023-04-07T20:50:25.934Z,102322.28
2023-04-07T20:52:53.902Z,102317.19
2023-04-07T20:55:21.828Z,102322.84
2023-04-07T20:57:49.922Z,102318.16
2023-04-07T21:00:19.023Z,102319.47
2023-04-07T21:02:48.706Z,102319.28
2023-04-07T21:05:16.771Z,102317.59
2023-04-07T21:07:46.043Z,102312.22
2023-04-07T21:10:14.443Z,102318.88
2023-04-07T21:12:42.471Z,102316.22
2023-04-07T21:15:11.481Z,102313.66
2023-04-07T21:17:39.533Z,102308.09
2023-04-07T21:20:08.685Z,102310.44
2023-04-07T21:22:36.621Z,102316.88
2023-04-07T21:25:07.241Z,102309.09
2023-04-07T21:27:36.102Z,102314.50
2023-04-07T21:30:05.651Z,102312.84
2023-04-07T21:32:34.205Z,102315.22
2023-04-07T21:35:02.243Z,102313.41
2023-04-07T21:37:30.165Z,102307.78
2023-04-07T21:39:58.330Z,102301.22
2023-04-07T21:42:27.627Z,102308.91
2023-04-07T21:44:55.867Z,102310.47
2023-04-07T21:47:23.783Z,102316.44
2023-04-07T21:49:51.683Z,102314.50
2023-04-07T21:52:19.879Z,102313.28
2023-04-07T21:54:47.942Z,102312.00
2023-04-07T21:57:15.878Z,102313.72
2023-04-07T21:59:45.206Z,102311.53
2023-04-07T22:02:13.638Z,102312.91
2023-04-07T22:04:41.996Z,102312.84
2023-04-07T22:07:10.046Z,102317.59
2023-04-07T22:09:38.096Z,102309.31
2023-04-07T22:12:06.110Z,102312.75
2023-04-07T22:14:33.999Z,102308.44
2023-04-07T22:17:03.555Z,102321.75
2023-04-07T22:19:31.483Z,102315.75
2023-04-07T22:21:59.407Z,102320.06
2023-04-07T22:24:27.355Z,102320.22
2023-04-07T22:26:55.957Z,102327.00
2023-04-07T22:29:24.003Z,102320.50
2023-04-07T22:31:51.893Z,102319.06
2023-04-07T22:34:21.254Z,102337.09
2023-04-07T22:36:49.134Z,102328.06
2023-04-07T22:39:17.077Z,102324.22
2023-04-07T22:41:44.985Z,102324.97
2023-04-07T22:44:12.890Z,102329.22
2023-04-07T22:46:41.017Z,102321.19
2023-04-07T22:49:08.953Z,102321.19
2023-04-07T22:51:38.669Z,102323.72
2023-04-07T22:54:06.717Z,102322.78
2023-04-07T22:56:34.624Z,102322.38
2023-04-07T22:59:05.677Z,102323.44
2023-04-07T23:01:34.236Z,102329.00
2023-04-07T23:04:02.231Z,102323.66
2023-04-07T23:06:30.186Z,102323.25
2023-04-07T23:08:59.515Z,102325.31
2023-04-07T23:11:27.437Z,102328.31
2023-04-07T23:13:55.329Z,102332.19
2023-04-07T23:16:23.743Z,102329.81
2023-04-07T23:18:51.888Z,102331.69
2023-04-07T23:21:20.075Z,102329.41
2023-04-07T23:23:48.692Z,102335.16
2023-04-07T23:26:18.012Z,102338.44
2023-04-07T23:28:46.351Z,102330.75
2023-04-07T23:31:14.546Z,102341.09
2023-04-07T23:33:42.538Z,102329.56
2023-04-07T23:36:10.476Z,102336.44
2023-04-07T23:38:39.617Z,102325.53
2023-04-07T23:41:07.780Z,102331.63
2023-04-07T23:43:37.111Z,102329.66
2023-04-07T23:46:05.072Z,102324.16
2023-04-07T23:48:33.009Z,102330.69
2023-04-07T23:51:00.942Z,102338.06
2023-04-07T23:53:28.813Z,102331.09
2023-04-07T23:55:56.959Z,102325.88
2023-04-07T23:58:24.977Z,102327.28
